createdAt,value
2017-10-19T00:00:11.974Z,927.83
2017-10-19T00:00:25.661Z,927.79
2017-10-19T00:00:38.598Z,927.8
2017-10-19T00:00:51.525Z,927.81
2017-10-19T00:01:04.961Z,927.84
2017-10-19T00:01:17.888Z,927.83
2017-10-19T00:01:31.373Z,927.84
2017-10-19T00:01:44.285Z,927.81
2017-10-19T00:01:57.179Z,927.83
2017-10-19T00:02:09.582Z,927.83
2017-10-19T00:02:22.535Z,927.82
2017-10-19T00:02:35.957Z,927.83
2017-10-19T00:02:48.893Z,927.86
2017-10-19T00:03:01.799Z,927.84
2017-10-19T00:03:15.215Z,927.82
2017-10-19T00:03:28.658Z,927.83
2017-10-19T00:03:42.055Z,927.85
2017-10-19T00:03:55.469Z,927.88
2017-10-19T00:04:08.413Z,927.87
2017-10-19T00:04:22.753Z,927.89
2017-10-19T00:04:35.644Z,927.84
2017-10-19T00:04:47.991Z,927.86
2017-10-19T00:05:00.867Z,927.91
2017-10-19T00:05:14.390Z,927.87
2017-10-19T00:05:27.971Z,927.85
2017-10-19T00:05:41.422Z,927.89
2017-10-19T00:05:53.795Z,927.88
2017-10-19T00:06:07.239Z,927.87
2017-10-19T00:06:20.657Z,927.91
2017-10-19T00:06:33.580Z,927.89
2017-10-19T00:06:45.977Z,927.9
2017-10-19T00:06:59.447Z,927.92
2017-10-19T00:07:12.860Z,927.91
2017-10-19T00:07:25.850Z,927.89
2017-10-19T00:07:38.717Z,927.9
2017-10-19T00:07:52.137Z,927.92
2017-10-19T00:08:05.573Z,927.88
2017-10-19T00:08:19.013Z,927.9
2017-10-19T00:08:33.080Z,927.93
2017-10-19T00:08:46.020Z,927.93
2017-10-19T00:08:59.505Z,927.93
2017-10-19T00:09:12.944Z,927.9
2017-10-19T00:09:26.422Z,927.89
2017-10-19T00:09:39.900Z,927.92
2017-10-19T00:09:52.217Z,927.91
2017-10-19T00:10:05.653Z,927.93
2017-10-19T00:10:19.080Z,927.9
2017-10-19T00:10:31.920Z,927.93
2017-10-19T00:10:45.396Z,927.94
2017-10-19T00:10:57.283Z,927.9
2017-10-19T00:11:10.199Z,927.89
2017-10-19T00:11:23.647Z,927.9
2017-10-19T00:11:36.022Z,927.93
2017-10-19T00:11:49.446Z,927.94
2017-10-19T00:12:01.815Z,927.93
2017-10-19T00:12:14.731Z,927.92
2017-10-19T00:12:27.082Z,927.92
2017-10-19T00:12:39.940Z,927.95
2017-10-19T00:12:53.457Z,927.94
2017-10-19T00:13:06.909Z,927.96
2017-10-19T00:13:19.311Z,927.94
2017-10-19T00:13:32.802Z,927.92
2017-10-19T00:13:45.704Z,927.93
2017-10-19T00:13:58.651Z,927.92
2017-10-19T00:14:11.540Z,927.92
2017-10-19T00:14:25.043Z,927.94
2017-10-19T00:14:38.472Z,927.9
2017-10-19T00:14:51.847Z,927.92
2017-10-19T00:15:05.264Z,927.92
2017-10-19T00:15:18.727Z,927.88
2017-10-19T00:15:32.993Z,927.94
2017-10-19T00:15:46.472Z,927.91
2017-10-19T00:15:59.968Z,927.93
2017-10-19T00:16:12.347Z,927.94
2017-10-19T00:16:25.784Z,927.88
2017-10-19T00:16:39.292Z,927.92
2017-10-19T00:16:51.664Z,927.94
2017-10-19T00:17:04.582Z,927.94
2017-10-19T00:17:18.017Z,927.96
2017-10-19T00:17:31.487Z,927.94
2017-10-19T00:17:44.908Z,927.95
2017-10-19T00:17:57.814Z,927.91
2017-10-19T00:18:10.151Z,927.94
2017-10-19T00:18:23.120Z,927.95
2017-10-19T00:18:36.621Z,927.94
2017-10-19T00:18:49.540Z,927.97
2017-10-19T00:19:02.944Z,927.97
2017-10-19T00:19:16.440Z,927.93
2017-10-19T00:19:29.379Z,927.94
2017-10-19T00:19:42.817Z,927.94
2017-10-19T00:19:56.278Z,927.95
2017-10-19T00:20:09.186Z,927.98
2017-10-19T00:20:22.601Z,927.95
2017-10-19T00:20:35.097Z,927.92
2017-10-19T00:20:48.044Z,927.93
2017-10-19T00:21:01.505Z,927.94
2017-10-19T00:21:14.991Z,927.93
2017-10-19T00:21:27.397Z,927.93
2017-10-19T00:21:40.328Z,927.93
2017-10-19T00:21:52.758Z,927.95
2017-10-19T00:22:06.201Z,927.94
2017-10-19T00:22:19.100Z,927.94
2017-10-19T00:22:32.640Z,927.96
2017-10-19T00:22:45.555Z,927.95
2017-10-19T00:22:58.991Z,927.98
2017-10-19T00:23:12.480Z,927.94
2017-10-19T00:23:25.924Z,927.99
2017-10-19T00:23:39.358Z,927.96
2017-10-19T00:23:52.281Z,927.96
2017-10-19T00:24:05.207Z,927.97
2017-10-19T00:24:18.107Z,927.96
2017-10-19T00:24:31.536Z,927.99
2017-10-19T00:24:44.961Z,927.97
2017-10-19T00:24:58.399Z,927.94
2017-10-19T00:25:11.853Z,927.96
2017-10-19T00:25:25.337Z,927.96
2017-10-19T00:25:37.630Z,927.95
2017-10-19T00:25:50.560Z,927.96
2017-10-19T00:26:04.028Z,927.95
2017-10-19T00:26:17.507Z,927.98
2017-10-19T00:26:30.390Z,927.99
2017-10-19T00:26:43.288Z,927.97
2017-10-19T00:26:56.754Z,927.98
2017-10-19T00:27:10.227Z,927.99
2017-10-19T00:27:23.671Z,927.96
2017-10-19T00:27:37.071Z,928
2017-10-19T00:27:50.533Z,928
2017-10-19T00:28:03.385Z,927.97
2017-10-19T00:28:16.757Z,927.97
2017-10-19T00:28:30.157Z,927.96
2017-10-19T00:28:43.069Z,927.97
2017-10-19T00:28:56.558Z,927.93
2017-10-19T00:29:10.010Z,927.98
2017-10-19T00:29:23.442Z,927.97
2017-10-19T00:29:36.900Z,927.92
2017-10-19T00:29:50.298Z,927.94
2017-10-19T00:30:03.196Z,927.95
2017-10-19T00:30:16.634Z,927.96
2017-10-19T00:30:29.555Z,927.96
2017-10-19T00:30:44.024Z,927.94
2017-10-19T00:30:57.489Z,927.93
2017-10-19T00:31:10.934Z,927.99
2017-10-19T00:31:24.379Z,927.94
2017-10-19T00:31:37.865Z,927.97
2017-10-19T00:31:51.377Z,927.97
2017-10-19T00:32:04.268Z,927.97
2017-10-19T00:32:17.774Z,927.95
2017-10-19T00:32:31.274Z,927.97
2017-10-19T00:32:44.710Z,927.99
2017-10-19T00:32:57.631Z,927.98
2017-10-19T00:33:11.101Z,927.96
2017-10-19T00:33:24.597Z,927.98
2017-10-19T00:33:37.553Z,927.99
2017-10-19T00:33:49.880Z,927.97
2017-10-19T00:34:03.303Z,927.96
2017-10-19T00:34:15.730Z,927.94
2017-10-19T00:34:29.204Z,927.97
2017-10-19T00:34:42.665Z,927.98
2017-10-19T00:34:56.188Z,927.94
2017-10-19T00:35:09.661Z,927.97
2017-10-19T00:35:23.139Z,927.97
2017-10-19T00:35:36.077Z,927.95
2017-10-19T00:35:48.975Z,927.96
2017-10-19T00:36:01.846Z,927.97
2017-10-19T00:36:15.287Z,927.93
2017-10-19T00:36:28.126Z,927.94
2017-10-19T00:36:41.539Z,927.96
2017-10-19T00:36:55.000Z,927.99
2017-10-19T00:37:08.440Z,927.98
2017-10-19T00:37:23.220Z,927.96
2017-10-19T00:37:36.116Z,927.95
2017-10-19T00:37:49.047Z,927.94
2017-10-19T00:38:02.512Z,927.97
2017-10-19T00:38:15.461Z,927.93
2017-10-19T00:38:28.352Z,927.96
2017-10-19T00:38:41.278Z,927.95
2017-10-19T00:38:54.692Z,927.95
2017-10-19T00:39:08.107Z,927.97
2017-10-19T00:39:21.562Z,927.94
2017-10-19T00:39:34.438Z,927.96
2017-10-19T00:39:47.896Z,927.97
2017-10-19T00:40:00.231Z,927.92
2017-10-19T00:40:13.670Z,927.92
2017-10-19T00:40:27.216Z,927.94
2017-10-19T00:40:40.714Z,927.95
2017-10-19T00:40:53.631Z,927.91
2017-10-19T00:41:06.528Z,927.98
2017-10-19T00:41:19.991Z,927.93
2017-10-19T00:41:32.889Z,927.9
2017-10-19T00:41:46.330Z,927.94
2017-10-19T00:41:59.887Z,927.91
2017-10-19T00:42:13.370Z,927.88
2017-10-19T00:42:26.244Z,927.9
2017-10-19T00:42:39.730Z,927.85
2017-10-19T00:42:53.185Z,927.9
2017-10-19T00:43:06.159Z,927.87
2017-10-19T00:43:19.614Z,927.84
2017-10-19T00:43:33.069Z,927.85
2017-10-19T00:43:45.986Z,927.84
2017-10-19T00:43:59.431Z,927.84
2017-10-19T00:44:11.768Z,927.82
2017-10-19T00:44:25.259Z,927.83
2017-10-19T00:44:38.759Z,927.81
2017-10-19T00:44:51.662Z,927.82
2017-10-19T00:45:05.085Z,927.76
2017-10-19T00:45:17.997Z,927.81
2017-10-19T00:45:31.489Z,927.81
2017-10-19T00:45:45.590Z,927.76
2017-10-19T00:45:59.079Z,927.76
2017-10-19T00:46:11.472Z,927.79
2017-10-19T00:46:24.986Z,927.78
2017-10-19T00:46:37.902Z,927.74
2017-10-19T00:46:50.806Z,927.77
2017-10-19T00:47:03.734Z,927.78
2017-10-19T00:47:17.172Z,927.77
2017-10-19T00:47:29.557Z,927.76
2017-10-19T00:47:42.426Z,927.73
2017-10-19T00:47:57.207Z,927.71
2017-10-19T00:48:10.666Z,927.72
2017-10-19T00:48:23.520Z,927.75
2017-10-19T00:48:36.973Z,927.74
2017-10-19T00:48:50.427Z,927.78
2017-10-19T00:49:03.895Z,927.76
2017-10-19T00:49:16.802Z,927.77
2017-10-19T00:49:30.236Z,927.73
2017-10-19T00:49:43.711Z,927.73
2017-10-19T00:49:56.520Z,927.73
2017-10-19T00:50:09.464Z,927.72
2017-10-19T00:50:22.880Z,927.71
2017-10-19T00:50:36.320Z,927.74
2017-10-19T00:50:49.808Z,927.71
2017-10-19T00:51:03.206Z,927.75
2017-10-19T00:51:16.122Z,927.75
2017-10-19T00:51:28.978Z,927.72
2017-10-19T00:51:42.464Z,927.74
2017-10-19T00:51:54.281Z,927.75
2017-10-19T00:52:07.717Z,927.76
2017-10-19T00:52:21.232Z,927.74
2017-10-19T00:52:34.127Z,927.74
2017-10-19T00:52:47.544Z,927.74
2017-10-19T00:53:00.449Z,927.78
2017-10-19T00:53:13.411Z,927.75
2017-10-19T00:53:26.855Z,927.78
2017-10-19T00:53:40.397Z,927.79
2017-10-19T00:53:53.276Z,927.83
2017-10-19T00:54:05.627Z,927.78
2017-10-19T00:54:18.557Z,927.83
2017-10-19T00:54:31.447Z,927.82
2017-10-19T00:54:44.320Z,927.83
2017-10-19T00:54:58.048Z,927.84
2017-10-19T00:55:10.923Z,927.84
2017-10-19T00:55:24.438Z,927.86
2017-10-19T00:55:37.920Z,927.89
2017-10-19T00:55:50.835Z,927.87
2017-10-19T00:56:03.752Z,927.91
2017-10-19T00:56:16.118Z,927.89
2017-10-19T00:56:29.621Z,927.93
2017-10-19T00:56:42.547Z,927.93
2017-10-19T00:56:55.477Z,927.91
2017-10-19T00:57:08.967Z,927.92
2017-10-19T00:57:22.446Z,927.93
2017-10-19T00:57:35.971Z,927.9
2017-10-19T00:57:49.429Z,927.88
2017-10-19T00:58:02.846Z,927.86
2017-10-19T00:58:16.284Z,927.85
2017-10-19T00:58:29.181Z,927.91
2017-10-19T00:58:42.070Z,927.88
2017-10-19T00:58:55.488Z,927.89
2017-10-19T00:59:08.887Z,927.84
2017-10-19T00:59:22.314Z,927.85
2017-10-19T00:59:35.768Z,927.87
2017-10-19T00:59:49.278Z,927.87
2017-10-19T01:00:02.693Z,927.88
2017-10-19T01:00:16.164Z,927.87
2017-10-19T01:00:29.643Z,927.89
2017-10-19T01:00:43.119Z,927.85
2017-10-19T01:00:56.739Z,927.86
2017-10-19T01:01:09.680Z,927.84
2017-10-19T01:01:22.549Z,927.85
2017-10-19T01:01:35.469Z,927.84
2017-10-19T01:01:48.372Z,927.89
2017-10-19T01:02:00.760Z,927.93
2017-10-19T01:02:13.705Z,927.88
2017-10-19T01:02:27.197Z,927.91
2017-10-19T01:02:40.607Z,927.88
2017-10-19T01:02:53.532Z,927.9
2017-10-19T01:03:07.054Z,927.9
2017-10-19T01:03:20.532Z,927.91
2017-10-19T01:03:34.001Z,927.94
2017-10-19T01:03:47.442Z,927.91
2017-10-19T01:04:01.000Z,927.95
2017-10-19T01:04:13.342Z,927.92
2017-10-19T01:04:26.791Z,927.91
2017-10-19T01:04:39.698Z,927.9
2017-10-19T01:04:53.118Z,927.9
2017-10-19T01:05:06.603Z,927.92
2017-10-19T01:05:20.020Z,927.91
2017-10-19T01:05:33.431Z,927.97
2017-10-19T01:05:46.941Z,927.91
2017-10-19T01:06:00.429Z,927.91
2017-10-19T01:06:13.895Z,927.9
2017-10-19T01:06:27.302Z,927.92
2017-10-19T01:06:40.198Z,927.91
2017-10-19T01:06:53.656Z,927.91
2017-10-19T01:07:07.139Z,927.91
2017-10-19T01:07:20.533Z,927.89
2017-10-19T01:07:34.037Z,927.89
2017-10-19T01:07:47.501Z,927.89
2017-10-19T01:08:00.974Z,927.9
2017-10-19T01:08:14.107Z,927.9
2017-10-19T01:08:27.583Z,927.93
2017-10-19T01:08:41.093Z,927.94
2017-10-19T01:08:54.532Z,927.95
2017-10-19T01:09:07.655Z,927.94
2017-10-19T01:09:21.137Z,927.95
2017-10-19T01:09:34.649Z,927.93
2017-10-19T01:09:48.096Z,927.92
2017-10-19T01:10:01.540Z,927.9
2017-10-19T01:10:14.987Z,927.92
2017-10-19T01:10:27.938Z,927.9
2017-10-19T01:10:41.387Z,927.92
2017-10-19T01:10:54.813Z,927.93
2017-10-19T01:11:07.688Z,927.91
2017-10-19T01:11:20.552Z,927.9
2017-10-19T01:11:32.400Z,927.9
2017-10-19T01:11:45.879Z,927.89
2017-10-19T01:11:59.386Z,927.91
2017-10-19T01:12:12.881Z,927.87
2017-10-19T01:12:25.222Z,927.87
2017-10-19T01:12:38.741Z,927.88
2017-10-19T01:12:52.182Z,927.84
2017-10-19T01:13:05.131Z,927.91
2017-10-19T01:13:18.619Z,927.87
2017-10-19T01:13:31.561Z,927.85
2017-10-19T01:13:45.000Z,927.87
2017-10-19T01:13:57.949Z,927.86
2017-10-19T01:14:11.431Z,927.82
2017-10-19T01:14:24.314Z,927.83
2017-10-19T01:14:37.730Z,927.85
2017-10-19T01:14:50.687Z,927.82
2017-10-19T01:15:04.178Z,927.83
2017-10-19T01:15:17.092Z,927.84
2017-10-19T01:15:30.564Z,927.88
2017-10-19T01:15:44.003Z,927.87
2017-10-19T01:15:57.552Z,927.84
2017-10-19T01:16:10.992Z,927.87
2017-10-19T01:16:23.920Z,927.87
2017-10-19T01:16:37.458Z,927.89
2017-10-19T01:16:50.946Z,927.89
2017-10-19T01:17:04.410Z,927.86
2017-10-19T01:17:17.880Z,927.87
2017-10-19T01:17:30.803Z,927.86
2017-10-19T01:17:44.232Z,927.87
2017-10-19T01:17:57.683Z,927.88
2017-10-19T01:18:11.141Z,927.86
2017-10-19T01:18:24.082Z,927.88
2017-10-19T01:18:36.863Z,927.87
2017-10-19T01:18:49.745Z,927.89
2017-10-19T01:19:02.672Z,927.89
2017-10-19T01:19:16.617Z,927.85
2017-10-19T01:19:29.558Z,927.88
2017-10-19T01:19:43.029Z,927.88
2017-10-19T01:19:55.903Z,927.88
2017-10-19T01:20:09.323Z,927.88
2017-10-19T01:20:22.792Z,927.86
2017-10-19T01:20:36.287Z,927.89
2017-10-19T01:20:49.225Z,927.86
2017-10-19T01:21:02.835Z,927.85
2017-10-19T01:21:16.343Z,927.88
2017-10-19T01:21:29.815Z,927.86
2017-10-19T01:21:42.812Z,927.89
2017-10-19T01:21:56.215Z,927.86
2017-10-19T01:22:09.167Z,927.9
2017-10-19T01:22:22.090Z,927.88
2017-10-19T01:22:35.512Z,927.86
2017-10-19T01:22:48.465Z,927.89
2017-10-19T01:23:01.370Z,927.88
2017-10-19T01:23:14.853Z,927.91
2017-10-19T01:23:28.338Z,927.89
2017-10-19T01:23:40.725Z,927.86
2017-10-19T01:23:54.163Z,927.86
2017-10-19T01:24:07.600Z,927.85
2017-10-19T01:24:20.561Z,927.84
2017-10-19T01:24:33.560Z,927.84
2017-10-19T01:24:46.450Z,927.88
2017-10-19T01:24:58.804Z,927.86
2017-10-19T01:25:11.777Z,927.85
2017-10-19T01:25:25.222Z,927.86
2017-10-19T01:25:38.666Z,927.89
2017-10-19T01:25:51.613Z,927.9
2017-10-19T01:26:05.088Z,927.84
2017-10-19T01:26:18.022Z,927.87
2017-10-19T01:26:30.429Z,927.88
2017-10-19T01:26:43.930Z,927.89
2017-10-19T01:26:57.431Z,927.88
2017-10-19T01:27:10.383Z,927.87
2017-10-19T01:27:23.765Z,927.85
2017-10-19T01:27:36.701Z,927.9
2017-10-19T01:27:50.109Z,927.89
2017-10-19T01:28:03.566Z,927.87
2017-10-19T01:28:17.082Z,927.83
2017-10-19T01:28:30.482Z,927.86
2017-10-19T01:28:43.923Z,927.89
2017-10-19T01:28:56.817Z,927.88
2017-10-19T01:29:09.967Z,927.88
2017-10-19T01:29:23.422Z,927.86
2017-10-19T01:29:36.879Z,927.87
2017-10-19T01:29:49.260Z,927.88
2017-10-19T01:30:02.159Z,927.87
2017-10-19T01:30:15.576Z,927.87
2017-10-19T01:30:28.544Z,927.87
2017-10-19T01:30:41.474Z,927.87
2017-10-19T01:30:54.360Z,927.86
2017-10-19T01:31:07.952Z,927.87
2017-10-19T01:31:21.406Z,927.87
2017-10-19T01:31:34.885Z,927.87
2017-10-19T01:31:47.773Z,927.85
2017-10-19T01:32:01.240Z,927.81
2017-10-19T01:32:14.922Z,927.88
2017-10-19T01:32:27.858Z,927.86
2017-10-19T01:32:40.782Z,927.84
2017-10-19T01:32:53.191Z,927.81
2017-10-19T01:33:05.564Z,927.79
2017-10-19T01:33:18.521Z,927.84
2017-10-19T01:33:31.449Z,927.83
2017-10-19T01:33:44.927Z,927.84
2017-10-19T01:33:58.348Z,927.8
2017-10-19T01:34:10.712Z,927.81
2017-10-19T01:34:23.586Z,927.79
2017-10-19T01:34:35.959Z,927.77
2017-10-19T01:34:49.495Z,927.8
2017-10-19T01:35:02.988Z,927.8
2017-10-19T01:35:15.902Z,927.79
2017-10-19T01:35:29.431Z,927.81
2017-10-19T01:35:42.874Z,927.76
2017-10-19T01:35:55.277Z,927.79
2017-10-19T01:36:08.687Z,927.75
2017-10-19T01:36:21.600Z,927.81
2017-10-19T01:36:35.041Z,927.79
2017-10-19T01:36:47.958Z,927.77
2017-10-19T01:37:01.439Z,927.79
2017-10-19T01:37:14.892Z,927.79
2017-10-19T01:37:27.277Z,927.81
2017-10-19T01:37:40.224Z,927.79
2017-10-19T01:37:53.345Z,927.81
2017-10-19T01:38:06.267Z,927.81
2017-10-19T01:38:19.157Z,927.81
2017-10-19T01:38:31.522Z,927.81
2017-10-19T01:38:43.919Z,927.83
2017-10-19T01:38:56.821Z,927.81
2017-10-19T01:39:10.281Z,927.82
2017-10-19T01:39:23.749Z,927.82
2017-10-19T01:39:37.187Z,927.83
2017-10-19T01:39:50.617Z,927.82
2017-10-19T01:40:03.542Z,927.85
2017-10-19T01:40:16.450Z,927.81
2017-10-19T01:40:29.892Z,927.82
2017-10-19T01:40:43.381Z,927.8
2017-10-19T01:40:56.850Z,927.78
2017-10-19T01:41:09.757Z,927.79
2017-10-19T01:41:23.242Z,927.81
2017-10-19T01:41:35.604Z,927.81
2017-10-19T01:41:48.491Z,927.83
2017-10-19T01:42:01.948Z,927.82
2017-10-19T01:42:15.511Z,927.8
2017-10-19T01:42:28.424Z,927.82
2017-10-19T01:42:41.933Z,927.81
2017-10-19T01:42:55.461Z,927.84
2017-10-19T01:43:07.869Z,927.84
2017-10-19T01:43:21.291Z,927.82
2017-10-19T01:43:34.765Z,927.82
2017-10-19T01:43:47.685Z,927.82
2017-10-19T01:44:01.121Z,927.81
2017-10-19T01:44:14.054Z,927.81
2017-10-19T01:44:27.555Z,927.83
2017-10-19T01:44:39.949Z,927.79
2017-10-19T01:44:52.374Z,927.8
2017-10-19T01:45:05.811Z,927.82
2017-10-19T01:45:18.706Z,927.85
2017-10-19T01:45:32.154Z,927.85
2017-10-19T01:45:45.039Z,927.81
2017-10-19T01:45:58.554Z,927.84
2017-10-19T01:46:12.670Z,927.84
2017-10-19T01:46:26.099Z,927.82
2017-10-19T01:46:39.560Z,927.8
2017-10-19T01:46:52.998Z,927.81
2017-10-19T01:47:06.450Z,927.8
2017-10-19T01:47:19.873Z,927.82
2017-10-19T01:47:33.291Z,927.8
2017-10-19T01:47:46.724Z,927.82
2017-10-19T01:47:58.033Z,927.8
2017-10-19T01:48:10.977Z,927.81
2017-10-19T01:48:23.951Z,927.82
2017-10-19T01:48:37.405Z,927.81
2017-10-19T01:48:50.307Z,927.78
2017-10-19T01:49:03.199Z,927.81
2017-10-19T01:49:16.677Z,927.79
2017-10-19T01:49:30.173Z,927.81
2017-10-19T01:49:43.614Z,927.76
2017-10-19T01:49:56.523Z,927.79
2017-10-19T01:50:10.047Z,927.78
2017-10-19T01:50:23.473Z,927.8
2017-10-19T01:50:36.912Z,927.78
2017-10-19T01:50:49.822Z,927.77
2017-10-19T01:51:03.298Z,927.79
2017-10-19T01:51:16.713Z,927.78
2017-10-19T01:51:30.170Z,927.78
2017-10-19T01:51:43.622Z,927.79
2017-10-19T01:51:56.535Z,927.81
2017-10-19T01:52:08.885Z,927.78
2017-10-19T01:52:22.338Z,927.78
2017-10-19T01:52:34.750Z,927.78
2017-10-19T01:52:48.174Z,927.81
2017-10-19T01:53:00.557Z,927.78
2017-10-19T01:53:12.911Z,927.79
2017-10-19T01:53:26.366Z,927.76
2017-10-19T01:53:39.774Z,927.79
2017-10-19T01:53:53.257Z,927.76
2017-10-19T01:54:06.735Z,927.78
2017-10-19T01:54:19.065Z,927.76
2017-10-19T01:54:32.520Z,927.75
2017-10-19T01:54:45.469Z,927.76
2017-10-19T01:54:58.415Z,927.76
2017-10-19T01:55:11.918Z,927.77
2017-10-19T01:55:24.839Z,927.79
2017-10-19T01:55:37.762Z,927.77
2017-10-19T01:55:51.257Z,927.75
2017-10-19T01:56:04.110Z,927.78
2017-10-19T01:56:17.556Z,927.8
2017-10-19T01:56:30.446Z,927.8
2017-10-19T01:56:42.859Z,927.77
2017-10-19T01:56:56.307Z,927.8
2017-10-19T01:57:09.747Z,927.79
2017-10-19T01:57:22.629Z,927.79
2017-10-19T01:57:36.105Z,927.8
2017-10-19T01:57:49.559Z,927.82
2017-10-19T01:58:02.507Z,927.81
2017-10-19T01:58:15.368Z,927.78
2017-10-19T01:58:28.822Z,927.77
2017-10-19T01:58:41.215Z,927.8
2017-10-19T01:58:54.701Z,927.78
2017-10-19T01:59:07.596Z,927.82
2017-10-19T01:59:20.508Z,927.81
2017-10-19T01:59:33.953Z,927.77
2017-10-19T01:59:46.887Z,927.78
2017-10-19T01:59:59.784Z,927.74
2017-10-19T02:00:12.680Z,927.78
2017-10-19T02:00:26.114Z,927.77
2017-10-19T02:00:39.512Z,927.79
2017-10-19T02:00:52.974Z,927.76
2017-10-19T02:01:05.351Z,927.73
2017-10-19T02:01:19.428Z,927.76
2017-10-19T02:01:32.904Z,927.76
2017-10-19T02:01:46.405Z,927.76
2017-10-19T02:01:59.318Z,927.73
2017-10-19T02:02:12.729Z,927.78
2017-10-19T02:02:26.215Z,927.79
2017-10-19T02:02:39.690Z,927.76
2017-10-19T02:02:52.060Z,927.76
2017-10-19T02:03:05.565Z,927.75
2017-10-19T02:03:18.450Z,927.73
2017-10-19T02:03:31.971Z,927.75
2017-10-19T02:03:45.397Z,927.75
2017-10-19T02:03:58.342Z,927.74
2017-10-19T02:04:11.296Z,927.75
2017-10-19T02:04:24.791Z,927.77
2017-10-19T02:04:37.676Z,927.73
2017-10-19T02:04:50.046Z,927.74
2017-10-19T02:05:02.965Z,927.72
2017-10-19T02:05:15.349Z,927.75
2017-10-19T02:05:28.801Z,927.71
2017-10-19T02:05:42.297Z,927.74
2017-10-19T02:05:55.749Z,927.73
2017-10-19T02:06:09.210Z,927.69
2017-10-19T02:06:22.295Z,927.73
2017-10-19T02:06:35.783Z,927.72
2017-10-19T02:06:49.275Z,927.72
2017-10-19T02:07:02.200Z,927.72
2017-10-19T02:07:15.162Z,927.69
2017-10-19T02:07:28.114Z,927.74
2017-10-19T02:07:41.023Z,927.73
2017-10-19T02:07:52.802Z,927.68
2017-10-19T02:08:05.788Z,927.73
2017-10-19T02:08:17.636Z,927.71
2017-10-19T02:08:31.059Z,927.69
2017-10-19T02:08:43.955Z,927.7
2017-10-19T02:08:57.365Z,927.67
2017-10-19T02:09:10.833Z,927.67
2017-10-19T02:09:24.316Z,927.68
2017-10-19T02:09:37.796Z,927.68
2017-10-19T02:09:51.262Z,927.7
2017-10-19T02:10:03.659Z,927.69
2017-10-19T02:10:16.569Z,927.69
2017-10-19T02:10:29.491Z,927.68
2017-10-19T02:10:42.973Z,927.67
2017-10-19T02:10:55.856Z,927.65
2017-10-19T02:11:09.384Z,927.67
2017-10-19T02:11:22.807Z,927.71
2017-10-19T02:11:35.759Z,927.7
2017-10-19T02:11:48.728Z,927.66
2017-10-19T02:12:01.644Z,927.66
2017-10-19T02:12:14.614Z,927.68
2017-10-19T02:12:28.089Z,927.7
2017-10-19T02:12:41.608Z,927.73
2017-10-19T02:12:55.059Z,927.68
2017-10-19T02:13:07.355Z,927.68
2017-10-19T02:13:20.808Z,927.66
2017-10-19T02:13:34.279Z,927.64
2017-10-19T02:13:47.795Z,927.65
2017-10-19T02:14:01.242Z,927.65
2017-10-19T02:14:14.809Z,927.65
2017-10-19T02:14:27.707Z,927.64
2017-10-19T02:14:41.153Z,927.63
2017-10-19T02:14:54.051Z,927.66
2017-10-19T02:15:06.472Z,927.63
2017-10-19T02:15:19.941Z,927.66
2017-10-19T02:15:32.899Z,927.64
2017-10-19T02:15:45.862Z,927.68
2017-10-19T02:15:58.734Z,927.63
2017-10-19T02:16:11.714Z,927.62
2017-10-19T02:16:25.744Z,927.64
2017-10-19T02:16:39.208Z,927.63
2017-10-19T02:16:52.137Z,927.66
2017-10-19T02:17:05.590Z,927.6
2017-10-19T02:17:18.488Z,927.61
2017-10-19T02:17:31.928Z,927.66
2017-10-19T02:17:44.836Z,927.68
2017-10-19T02:17:57.204Z,927.61
2017-10-19T02:18:10.648Z,927.58
2017-10-19T02:18:22.977Z,927.59
2017-10-19T02:18:36.384Z,927.6
2017-10-19T02:18:48.792Z,927.6
2017-10-19T02:19:02.274Z,927.61
2017-10-19T02:19:15.712Z,927.59
2017-10-19T02:19:28.678Z,927.58
2017-10-19T02:19:42.123Z,927.61
2017-10-19T02:19:54.545Z,927.53
2017-10-19T02:20:08.004Z,927.54
2017-10-19T02:20:20.939Z,927.55
2017-10-19T02:20:32.819Z,927.55
2017-10-19T02:20:46.316Z,927.56
2017-10-19T02:20:59.762Z,927.53
2017-10-19T02:21:12.159Z,927.53
2017-10-19T02:21:25.636Z,927.54
2017-10-19T02:21:38.534Z,927.54
2017-10-19T02:21:51.972Z,927.49
2017-10-19T02:22:04.858Z,927.53
2017-10-19T02:22:17.793Z,927.5
2017-10-19T02:22:30.755Z,927.48
2017-10-19T02:22:44.247Z,927.51
2017-10-19T02:22:57.734Z,927.5
2017-10-19T02:23:10.624Z,927.49
2017-10-19T02:23:24.053Z,927.49
2017-10-19T02:23:37.563Z,927.51
2017-10-19T02:23:51.032Z,927.46
2017-10-19T02:24:04.491Z,927.48
2017-10-19T02:24:17.357Z,927.46
2017-10-19T02:24:30.834Z,927.45
2017-10-19T02:24:43.739Z,927.42
2017-10-19T02:24:56.705Z,927.42
2017-10-19T02:25:09.640Z,927.42
2017-10-19T02:25:22.482Z,927.45
2017-10-19T02:25:35.422Z,927.41
2017-10-19T02:25:48.346Z,927.42
2017-10-19T02:26:01.862Z,927.44
2017-10-19T02:26:15.344Z,927.41
2017-10-19T02:26:28.793Z,927.4
2017-10-19T02:26:41.724Z,927.42
2017-10-19T02:26:54.601Z,927.4
2017-10-19T02:27:06.995Z,927.4
2017-10-19T02:27:20.458Z,927.42
2017-10-19T02:27:33.939Z,927.38
2017-10-19T02:27:46.307Z,927.42
2017-10-19T02:27:59.815Z,927.42
2017-10-19T02:28:13.293Z,927.4
2017-10-19T02:28:26.221Z,927.41
2017-10-19T02:28:39.132Z,927.42
2017-10-19T02:28:52.613Z,927.37
2017-10-19T02:29:04.986Z,927.41
2017-10-19T02:29:17.883Z,927.41
2017-10-19T02:29:30.782Z,927.4
2017-10-19T02:29:44.277Z,927.39
2017-10-19T02:29:57.167Z,927.36
2017-10-19T02:30:10.633Z,927.4
2017-10-19T02:30:23.524Z,927.36
2017-10-19T02:30:37.010Z,927.34
2017-10-19T02:30:50.504Z,927.37
2017-10-19T02:31:03.413Z,927.37
2017-10-19T02:31:16.887Z,927.39
2017-10-19T02:31:31.036Z,927.41
2017-10-19T02:31:43.945Z,927.37
2017-10-19T02:31:56.852Z,927.4
2017-10-19T02:32:09.751Z,927.37
2017-10-19T02:32:22.668Z,927.38
2017-10-19T02:32:35.599Z,927.37
2017-10-19T02:32:49.080Z,927.36
2017-10-19T02:33:01.996Z,927.36
2017-10-19T02:33:14.900Z,927.38
2017-10-19T02:33:27.806Z,927.36
2017-10-19T02:33:40.786Z,927.38
2017-10-19T02:33:54.254Z,927.39
2017-10-19T02:34:07.747Z,927.37
2017-10-19T02:34:20.661Z,927.38
2017-10-19T02:34:34.089Z,927.35
2017-10-19T02:34:47.557Z,927.36
2017-10-19T02:35:01.052Z,927.35
2017-10-19T02:35:14.020Z,927.34
2017-10-19T02:35:27.461Z,927.34
2017-10-19T02:35:40.380Z,927.34
2017-10-19T02:35:53.825Z,927.33
2017-10-19T02:36:06.706Z,927.29
2017-10-19T02:36:20.215Z,927.33
2017-10-19T02:36:33.127Z,927.28
2017-10-19T02:36:46.561Z,927.31
2017-10-19T02:36:59.446Z,927.32
2017-10-19T02:37:12.627Z,927.32
2017-10-19T02:37:26.105Z,927.32
2017-10-19T02:37:39.024Z,927.32
2017-10-19T02:37:51.922Z,927.32
2017-10-19T02:38:04.838Z,927.27
2017-10-19T02:38:18.285Z,927.27
2017-10-19T02:38:31.209Z,927.29
2017-10-19T02:38:44.642Z,927.32
2017-10-19T02:38:57.054Z,927.29
2017-10-19T02:39:10.552Z,927.28
2017-10-19T02:39:23.987Z,927.29
2017-10-19T02:39:37.418Z,927.27
2017-10-19T02:39:50.884Z,927.28
2017-10-19T02:40:04.325Z,927.26
2017-10-19T02:40:16.667Z,927.25
2017-10-19T02:40:29.594Z,927.23
2017-10-19T02:40:42.509Z,927.24
2017-10-19T02:40:54.326Z,927.21
2017-10-19T02:41:06.719Z,927.23
2017-10-19T02:41:20.205Z,927.21
2017-10-19T02:41:33.120Z,927.22
2017-10-19T02:41:45.475Z,927.24
2017-10-19T02:41:58.969Z,927.21
2017-10-19T02:42:12.434Z,927.2
2017-10-19T02:42:25.960Z,927.19
2017-10-19T02:42:39.411Z,927.23
2017-10-19T02:42:52.299Z,927.21
2017-10-19T02:43:05.892Z,927.18
2017-10-19T02:43:18.305Z,927.21
2017-10-19T02:43:31.265Z,927.19
2017-10-19T02:43:44.737Z,927.21
2017-10-19T02:43:57.646Z,927.18
2017-10-19T02:44:11.111Z,927.18
2017-10-19T02:44:24.498Z,927.17
2017-10-19T02:44:36.897Z,927.18
2017-10-19T02:44:49.232Z,927.17